Weston Point, United Kingdom

11:48 AM GMT on February 23, 2017 (GMT +0000)
Mersey Gateway | | Change Station

Elev 23 ft 53.36 °N, 2.72 °W | Updated 42 seconds ago

Rain
Rain
42.4 °F
Feels Like 37 °F
N
8.1
Wind Variable Wind from South
Gusts 15.0 mph

Today
High -- | Low -- °F
--% Chance of Precip.
Yesterday
High -- | Low -- °F
Precip. -- in
Pressure 29.06 in
Visibility 1.9 miles
Clouds Scattered Clouds 1100 ft
Mostly Cloudy 1500 ft
Overcast 1900 ft
Windchill 37 °F
Dew Point 37 °F
Humidity 82%
Rainfall 0.20 in
Snow Depth Not available.
7:11 AM 5:37 PM
Waning Crescent, 11% visible
METAR EGGP 231120Z 29041G60KT 3000 RA SCT011 BKN015 OVC019 06/04 Q0984
Pressure 29.06 in
Visibility 1.9 miles
Clouds Scattered Clouds 1100 ft
Mostly Cloudy 1500 ft
Overcast 1900 ft
Windchill 37 °F
Dew Point 37 °F
Humidity 82%
Rainfall 0.20 in
Snow Depth Not available.
7:11 AM 5:37 PM
Waning Crescent, 11% visible
METAR EGGP 231120Z 29041G60KT 3000 RA SCT011 BKN015 OVC019 06/04 Q0984

Get Your Daily Forecast Email!

Thanks for signing up!

Be on the lookout for a verification email in your inbox.

You'll start receiving the daily forecast at 8 AM.

×

10-Day Weather Forecast

×

Almanac

Astronomy

Feb. 23, 2017 Rise Set
Actual Time
Civil Twilight
Nautical Twilight
Astronomical Twilight
Moon
Length of Visible Light
Length of Day
Tomorrow will be .
, % of the Moon is Illuminated

Today's Extremes

Country Highs Country Lows

Community

WunderPhotos

Upload Photos

1,962,540 photos uploaded!

WunderBlog® & News

Nearby

Air Quality

  Air Quality AQ Index Pollutant
Not available.

Snow Depth

Station Depth Elevation

Earthquake Activity

City Distance Mag. Time & Date
Minimum magnitude displayed is 2.5.

Coastal Water Temperatures

Place Temperature

Stations

Nearby Weather Stations

Station Location Temp. Windchill Dew Point Humidity Wind Precip. Elev Updated Type